Rhodes, Greece
Current Conditions -  °F | °C
As of 3:20 PM on Wednesday 26 Nov 2014 (Local Time) from LGRP Reporting Station
Few Clouds Few Clouds  
Wind Chill: 15°   Ceiling: Unl
Heat Index: 15°   Visibility: 6mi
Dew Point:   Wind: 15mph
Humidity: 55%   Direction: 290°WNW
Pressure: 29.91"   Gusts: NA
Location:  36.43°N, 28.22°E
Report Text: LGRP 261220Z 29013KT 9999 FEW018 15/06 Q1013 NOSIG
Loading
Personal Weather Stations






























Interactive Weather Map New forecast layout! Learn more

10-Day Weather Forecast

Advertisements
Track Severe Weather on mobile